sensor_id;sensor_type;location;lat;lon;timestamp;pressure;altitude;pressure_sealevel;temperature;humidity
61337;BME280;47212;41.326;2.104;2023-10-19T00:05:00;100020.88;;;22.82;62.33
61337;BME280;47212;41.326;2.104;2023-10-19T00:10:05;100031.69;;;22.87;61.08
61337;BME280;47212;41.326;2.104;2023-10-19T00:15:08;100028.63;;;22.93;59.62
61337;BME280;47212;41.326;2.104;2023-10-19T00:20:14;100012.13;;;23.00;58.79
61337;BME280;47212;41.326;2.104;2023-10-19T00:25:35;100022.59;;;23.06;57.99
61337;BME280;47212;41.326;2.104;2023-10-19T00:30:37;100012.72;;;23.09;57.48
61337;BME280;47212;41.326;2.104;2023-10-19T00:35:39;99993.38;;;23.12;57.03
61337;BME280;47212;41.326;2.104;2023-10-19T00:40:58;99993.44;;;23.16;56.40
61337;BME280;47212;41.326;2.104;2023-10-19T00:46:15;99989.56;;;23.20;55.34
61337;BME280;47212;41.326;2.104;2023-10-19T00:51:34;99999.22;;;23.27;53.01
61337;BME280;47212;41.326;2.104;2023-10-19T00:56:37;99988.97;;;23.31;54.42
61337;BME280;47212;41.326;2.104;2023-10-19T01:05:12;99986.72;;;23.36;54.65
61337;BME280;47212;41.326;2.104;2023-10-19T01:10:23;99959.66;;;23.33;55.03
61337;BME280;47212;41.326;2.104;2023-10-19T01:15:25;99962.31;;;23.26;55.42
61337;BME280;47212;41.326;2.104;2023-10-19T01:20:32;99953.03;;;23.18;56.15
61337;BME280;47212;41.326;2.104;2023-10-19T01:25:55;99957.94;;;23.06;54.56
61337;BME280;47212;41.326;2.104;2023-10-19T01:31:04;99946.25;;;22.97;56.82
61337;BME280;47212;41.326;2.104;2023-10-19T01:36:08;99940.19;;;22.91;57.05
61337;BME280;47212;41.326;2.104;2023-10-19T01:41:19;99958.66;;;22.83;56.80
61337;BME280;47212;41.326;2.104;2023-10-19T01:46:34;99949.78;;;22.78;57.01
61337;BME280;47212;41.326;2.104;2023-10-19T01:51:37;99941.75;;;22.73;57.35
61337;BME280;47212;41.326;2.104;2023-10-19T01:56:40;99936.47;;;22.68;56.89
61337;BME280;47212;41.326;2.104;2023-10-19T02:01:44;99909.09;;;22.66;56.66
61337;BME280;47212;41.326;2.104;2023-10-19T02:06:48;99909.09;;;22.66;56.83
61337;BME280;47212;41.326;2.104;2023-10-19T02:11:54;99886.19;;;22.69;55.51
61337;BME280;47212;41.326;2.104;2023-10-19T02:17:03;99856.72;;;22.80;56.33
61337;BME280;47212;41.326;2.104;2023-10-19T02:22:06;99844.66;;;22.92;55.83
61337;BME280;47212;41.326;2.104;2023-10-19T02:27:13;99834.56;;;23.03;55.64
61337;BME280;47212;41.326;2.104;2023-10-19T02:32:35;99837.09;;;23.12;55.55
61337;BME280;47212;41.326;2.104;2023-10-19T02:37:37;99826.13;;;23.19;55.23
61337;BME280;47212;41.326;2.104;2023-10-19T02:42:40;99847.66;;;23.26;54.93
61337;BME280;47212;41.326;2.104;2023-10-19T02:47:44;99848.97;;;23.32;54.34
61337;BME280;47212;41.326;2.104;2023-10-19T02:52:46;99838.34;;;23.37;54.59
61337;BME280;47212;41.326;2.104;2023-10-19T02:58:08;99838.34;;;23.37;55.50
61337;BME280;47212;41.326;2.104;2023-10-19T03:03:16;99853.34;;;23.33;55.27
61337;BME280;47212;41.326;2.104;2023-10-19T03:08:22;99847.72;;;23.29;55.45
61337;BME280;47212;41.326;2.104;2023-10-19T03:13:27;99854.03;;;23.26;55.54
61337;BME280;47212;41.326;2.104;2023-10-19T03:18:35;99849.63;;;23.25;54.08
61337;BME280;47212;41.326;2.104;2023-10-19T03:23:37;99842.84;;;23.23;54.94
61337;BME280;47212;41.326;2.104;2023-10-19T03:28:39;99852.72;;;23.20;54.67
61337;BME280;47212;41.326;2.104;2023-10-19T03:33:44;99839.56;;;23.17;54.45
61337;BME280;47212;41.326;2.104;2023-10-19T03:38:47;99821.38;;;23.19;54.65
61337;BME280;47212;41.326;2.104;2023-10-19T03:43:59;99820.56;;;23.19;54.87
61337;BME280;47212;41.326;2.104;2023-10-19T03:49:02;99834.03;;;23.17;54.93
61337;BME280;47212;41.326;2.104;2023-10-19T03:54:16;99835.56;;;23.14;54.85
61337;BME280;47212;41.326;2.104;2023-10-19T03:59:33;99841.06;;;23.11;55.06
61337;BME280;47212;41.326;2.104;2023-10-19T04:04:40;99838.66;;;23.09;55.12
61337;BME280;47212;41.326;2.104;2023-10-19T04:09:52;99829.09;;;23.07;54.78
61337;BME280;47212;41.326;2.104;2023-10-19T04:16:17;99825.50;;;23.06;54.72
61337;BME280;47212;41.326;2.104;2023-10-19T04:36:35;99776.34;;;23.07;54.24
61337;BME280;47212;41.326;2.104;2023-10-19T04:41:42;99775.91;;;23.05;54.19
61337;BME280;47212;41.326;2.104;2023-10-19T04:46:51;99770.59;;;22.96;53.01
61337;BME280;47212;41.326;2.104;2023-10-19T04:52:03;99756.66;;;22.93;54.78
61337;BME280;47212;41.326;2.104;2023-10-19T04:57:12;99749.38;;;22.84;56.02
61337;BME280;47212;41.326;2.104;2023-10-19T05:10:59;99724.22;;;22.54;56.99
61337;BME280;47212;41.326;2.104;2023-10-19T05:16:14;99725.66;;;22.48;57.21
61337;BME280;47212;41.326;2.104;2023-10-19T05:21:22;99716.84;;;22.43;57.47
61337;BME280;47212;41.326;2.104;2023-10-19T05:26:27;99728.66;;;22.40;57.64
61337;BME280;47212;41.326;2.104;2023-10-19T05:31:36;99721.00;;;22.33;58.13
61337;BME280;47212;41.326;2.104;2023-10-19T05:36:49;99731.59;;;22.28;58.60
61337;BME280;47212;41.326;2.104;2023-10-19T05:41:59;99727.16;;;22.23;58.30
61337;BME280;47212;41.326;2.104;2023-10-19T05:47:06;99725.91;;;22.20;58.59
61337;BME280;47212;41.326;2.104;2023-10-19T05:52:14;99718.31;;;22.17;58.67
61337;BME280;47212;41.326;2.104;2023-10-19T05:57:20;99704.75;;;22.12;59.05
61337;BME280;47212;41.326;2.104;2023-10-19T06:02:42;99699.50;;;22.07;58.99
61337;BME280;47212;41.326;2.104;2023-10-19T06:07:50;99713.28;;;22.04;59.45
61337;BME280;47212;41.326;2.104;2023-10-19T06:12:57;99699.44;;;22.04;59.62
61337;BME280;47212;41.326;2.104;2023-10-19T06:18:05;99683.59;;;22.04;60.31
61337;BME280;47212;41.326;2.104;2023-10-19T06:23:13;99711.31;;;22.04;60.53
61337;BME280;47212;41.326;2.104;2023-10-19T06:28:17;99702.53;;;22.02;61.02
61337;BME280;47212;41.326;2.104;2023-10-19T06:33:34;99730.97;;;21.99;61.40
61337;BME280;47212;41.326;2.104;2023-10-19T06:38:43;99738.13;;;22.00;60.79
61337;BME280;47212;41.326;2.104;2023-10-19T06:43:47;99738.31;;;22.07;60.06
61337;BME280;47212;41.326;2.104;2023-10-19T06:49:03;99736.13;;;22.16;60.76
61337;BME280;47212;41.326;2.104;2023-10-19T06:54:06;99753.34;;;22.25;60.75
61337;BME280;47212;41.326;2.104;2023-10-19T06:59:17;99740.84;;;22.35;59.82
61337;BME280;47212;41.326;2.104;2023-10-19T07:04:19;99740.69;;;22.47;59.45
61337;BME280;47212;41.326;2.104;2023-10-19T07:09:37;99739.03;;;22.62;59.15
61337;BME280;47212;41.326;2.104;2023-10-19T07:14:54;99748.34;;;22.73;59.22
61337;BME280;47212;41.326;2.104;2023-10-19T07:20:02;99765.88;;;22.77;58.49
61337;BME280;47212;41.326;2.104;2023-10-19T07:25:10;99773.81;;;22.79;58.29
61337;BME280;47212;41.326;2.104;2023-10-19T07:30:35;99779.59;;;22.90;57.38
61337;BME280;47212;41.326;2.104;2023-10-19T07:35:44;99780.03;;;23.37;57.17
61337;BME280;47212;41.326;2.104;2023-10-19T07:40:55;99786.63;;;24.28;55.30
61337;BME280;47212;41.326;2.104;2023-10-19T07:46:01;99795.09;;;25.05;53.66
61337;BME280;47212;41.326;2.104;2023-10-19T07:51:09;99784.59;;;25.77;52.85
61337;BME280;47212;41.326;2.104;2023-10-19T07:56:27;99787.78;;;26.37;51.73
61337;BME280;47212;41.326;2.104;2023-10-19T08:01:38;99764.00;;;26.75;51.08
61337;BME280;47212;41.326;2.104;2023-10-19T08:06:44;99763.72;;;27.12;50.41
61337;BME280;47212;41.326;2.104;2023-10-19T08:11:50;99778.47;;;27.23;49.76
61337;BME280;47212;41.326;2.104;2023-10-19T08:17:02;99780.88;;;27.53;50.04
61337;BME280;47212;41.326;2.104;2023-10-19T08:22:08;99767.72;;;27.82;49.53
61337;BME280;47212;41.326;2.104;2023-10-19T08:27:16;99751.31;;;27.56;50.23
61337;BME280;47212;41.326;2.104;2023-10-19T08:32:31;99744.97;;;27.38;51.59
61337;BME280;47212;41.326;2.104;2023-10-19T08:37:41;99737.75;;;27.47;52.81
61337;BME280;47212;41.326;2.104;2023-10-19T08:42:52;99731.00;;;27.20;54.18
61337;BME280;47212;41.326;2.104;2023-10-19T08:48:01;99748.94;;;27.08;54.99
61337;BME280;47212;41.326;2.104;2023-10-19T08:53:15;99742.84;;;26.67;56.29
61337;BME280;47212;41.326;2.104;2023-10-19T08:58:43;99729.66;;;26.53;57.13
61337;BME280;47212;41.326;2.104;2023-10-19T09:03:48;99728.06;;;26.63;57.28
61337;BME280;47212;41.326;2.104;2023-10-19T09:08:52;99720.13;;;26.76;56.80
61337;BME280;47212;41.326;2.104;2023-10-19T09:13:56;99698.53;;;26.44;57.16
61337;BME280;47212;41.326;2.104;2023-10-19T09:19:02;99664.13;;;26.08;57.67
61337;BME280;47212;41.326;2.104;2023-10-19T09:24:19;99655.19;;;25.74;57.99
61337;BME280;47212;41.326;2.104;2023-10-19T09:29:31;99667.44;;;25.62;58.67
61337;BME280;47212;41.326;2.104;2023-10-19T09:34:45;99689.53;;;25.96;57.82
61337;BME280;47212;41.326;2.104;2023-10-19T09:39:53;99738.84;;;25.85;58.41
61337;BME280;47212;41.326;2.104;2023-10-19T09:44:59;99759.41;;;25.62;59.43
61337;BME280;47212;41.326;2.104;2023-10-19T09:50:09;99763.97;;;25.37;60.15
61337;BME280;47212;41.326;2.104;2023-10-19T09:55:33;99756.28;;;25.20;61.18
61337;BME280;47212;41.326;2.104;2023-10-19T10:00:50;99724.84;;;25.19;61.37
61337;BME280;47212;41.326;2.104;2023-10-19T10:05:55;99725.63;;;25.16;61.92
61337;BME280;47212;41.326;2.104;2023-10-19T10:11:21;99720.75;;;25.09;63.88
61337;BME280;47212;41.326;2.104;2023-10-19T10:16:28;99731.03;;;25.02;63.78
61337;BME280;47212;41.326;2.104;2023-10-19T10:21:37;99715.56;;;25.08;63.74
61337;BME280;47212;41.326;2.104;2023-10-19T10:27:04;99695.38;;;25.15;64.12
61337;BME280;47212;41.326;2.104;2023-10-19T10:32:09;99642.13;;;25.23;63.21
61337;BME280;47212;41.326;2.104;2023-10-19T10:37:17;99606.69;;;25.20;62.23
61337;BME280;47212;41.326;2.104;2023-10-19T10:42:22;99617.63;;;25.54;60.98
61337;BME280;47212;41.326;2.104;2023-10-19T10:47:32;99558.81;;;25.73;59.69
61337;BME280;47212;41.326;2.104;2023-10-19T10:52:42;99604.63;;;25.79;59.47
61337;BME280;47212;41.326;2.104;2023-10-19T10:57:55;99599.84;;;25.76;59.24
61337;BME280;47212;41.326;2.104;2023-10-19T11:03:05;99600.78;;;26.09;58.28
61337;BME280;47212;41.326;2.104;2023-10-19T11:08:25;99576.56;;;26.48;57.85
61337;BME280;47212;41.326;2.104;2023-10-19T11:13:30;99564.19;;;26.63;57.26
61337;BME280;47212;41.326;2.104;2023-10-19T11:18:42;99532.31;;;26.50;56.81
61337;BME280;47212;41.326;2.104;2023-10-19T11:24:02;99521.50;;;26.31;57.12
61337;BME280;47212;41.326;2.104;2023-10-19T11:29:07;99495.19;;;26.14;57.28
61337;BME280;47212;41.326;2.104;2023-10-19T11:34:18;99488.44;;;26.15;57.90
61337;BME280;47212;41.326;2.104;2023-10-19T11:39:33;99489.22;;;26.23;58.68
61337;BME280;47212;41.326;2.104;2023-10-19T11:44:39;99491.66;;;26.39;59.31
61337;BME280;47212;41.326;2.104;2023-10-19T11:49:47;99472.50;;;26.26;59.10
61337;BME280;47212;41.326;2.104;2023-10-19T11:54:58;99484.84;;;26.18;58.81
61337;BME280;47212;41.326;2.104;2023-10-19T12:00:11;99491.22;;;26.19;58.84
61337;BME280;47212;41.326;2.104;2023-10-19T12:05:44;99486.44;;;26.58;58.06
61337;BME280;47212;41.326;2.104;2023-10-19T12:10:47;99475.22;;;26.83;56.08
61337;BME280;47212;41.326;2.104;2023-10-19T12:15:51;99466.13;;;26.51;56.62
61337;BME280;47212;41.326;2.104;2023-10-19T12:21:05;99462.13;;;26.06;57.17
61337;BME280;47212;41.326;2.104;2023-10-19T12:26:19;99461.66;;;25.71;58.45
61337;BME280;47212;41.326;2.104;2023-10-19T12:31:29;99460.81;;;25.57;59.34
61337;BME280;47212;41.326;2.104;2023-10-19T12:36:40;99448.44;;;25.44;58.54
61337;BME280;47212;41.326;2.104;2023-10-19T12:41:59;99460.72;;;25.32;58.43
61337;BME280;47212;41.326;2.104;2023-10-19T12:47:10;99427.28;;;25.21;58.84
61337;BME280;47212;41.326;2.104;2023-10-19T12:52:23;99401.84;;;25.33;59.01
61337;BME280;47212;41.326;2.104;2023-10-19T12:57:28;99379.56;;;25.33;59.13
61337;BME280;47212;41.326;2.104;2023-10-19T13:02:36;99357.28;;;25.33;59.07
61337;BME280;47212;41.326;2.104;2023-10-19T13:07:48;99340.59;;;25.40;58.67
61337;BME280;47212;41.326;2.104;2023-10-19T13:13:01;99348.53;;;25.42;58.84
61337;BME280;47212;41.326;2.104;2023-10-19T13:18:16;99341.38;;;25.37;58.90
61337;BME280;47212;41.326;2.104;2023-10-19T13:23:26;99336.56;;;25.20;59.36
61337;BME280;47212;41.326;2.104;2023-10-19T13:28:32;99338.91;;;25.11;59.60
61337;BME280;47212;41.326;2.104;2023-10-19T13:33:39;99349.25;;;25.07;60.07
61337;BME280;47212;41.326;2.104;2023-10-19T13:38:50;99353.59;;;25.01;60.20
61337;BME280;47212;41.326;2.104;2023-10-19T13:43:57;99340.81;;;24.93;60.85
61337;BME280;47212;41.326;2.104;2023-10-19T13:49:03;99332.06;;;24.87;61.51
61337;BME280;47212;41.326;2.104;2023-10-19T13:54:16;99311.78;;;24.87;62.07
61337;BME280;47212;41.326;2.104;2023-10-19T13:59:24;99303.03;;;24.95;62.37
61337;BME280;47212;41.326;2.104;2023-10-19T14:04:34;99313.44;;;25.02;62.90
61337;BME280;47212;41.326;2.104;2023-10-19T14:09:46;99322.97;;;24.97;62.51
61337;BME280;47212;41.326;2.104;2023-10-19T14:14:53;99326.06;;;24.85;61.93
61337;BME280;47212;41.326;2.104;2023-10-19T14:20:20;99318.06;;;24.69;61.89
61337;BME280;47212;41.326;2.104;2023-10-19T14:25:24;99310.06;;;24.57;62.26
61337;BME280;47212;41.326;2.104;2023-10-19T14:30:32;99271.88;;;24.47;62.29
61337;BME280;47212;41.326;2.104;2023-10-19T14:35:40;99269.84;;;24.37;62.96
61337;BME280;47212;41.326;2.104;2023-10-19T14:40:45;99252.38;;;24.36;62.83
61337;BME280;47212;41.326;2.104;2023-10-19T14:46:07;99252.38;;;24.40;63.56
61337;BME280;47212;41.326;2.104;2023-10-19T14:51:13;99231.72;;;24.37;63.86
61337;BME280;47212;41.326;2.104;2023-10-19T14:56:23;99226.13;;;24.30;64.20
61337;BME280;47212;41.326;2.104;2023-10-19T15:01:33;99223.25;;;24.23;64.67
61337;BME280;47212;41.326;2.104;2023-10-19T15:06:41;99208.94;;;24.18;64.00
61337;BME280;47212;41.326;2.104;2023-10-19T15:11:48;99232.34;;;24.09;64.11
61337;BME280;47212;41.326;2.104;2023-10-19T15:16:55;99176.31;;;24.00;64.71
61337;BME280;47212;41.326;2.104;2023-10-19T15:22:01;99178.66;;;23.91;65.42
61337;BME280;47212;41.326;2.104;2023-10-19T15:27:10;99194.53;;;23.94;64.64
61337;BME280;47212;41.326;2.104;2023-10-19T15:32:15;99196.50;;;23.90;64.40
61337;BME280;47212;41.326;2.104;2023-10-19T15:37:32;99201.63;;;23.85;64.33
61337;BME280;47212;41.326;2.104;2023-10-19T15:42:39;99164.72;;;23.84;64.33
61337;BME280;47212;41.326;2.104;2023-10-19T15:47:53;99143.69;;;23.87;64.55
61337;BME280;47212;41.326;2.104;2023-10-19T15:52:58;99154.00;;;23.86;64.65
61337;BME280;47212;41.326;2.104;2023-10-19T15:58:05;99139.69;;;23.80;64.59
61337;BME280;47212;41.326;2.104;2023-10-19T16:03:10;99107.13;;;23.74;63.64
61337;BME280;47212;41.326;2.104;2023-10-19T16:08:17;99042.81;;;23.68;63.51
61337;BME280;47212;41.326;2.104;2023-10-19T16:13:25;99020.56;;;23.61;63.14
61337;BME280;47212;41.326;2.104;2023-10-19T16:18:32;99049.13;;;23.62;63.93
61337;BME280;47212;41.326;2.104;2023-10-19T16:23:40;99047.53;;;23.61;64.20
61337;BME280;47212;41.326;2.104;2023-10-19T16:28:46;99057.06;;;23.60;64.66
61337;BME280;47212;41.326;2.104;2023-10-19T16:34:04;99040.78;;;23.62;65.06
61337;BME280;47212;41.326;2.104;2023-10-19T16:39:10;99025.31;;;23.61;65.71
61337;BME280;47212;41.326;2.104;2023-10-19T16:44:28;99010.63;;;23.60;66.82
61337;BME280;47212;41.326;2.104;2023-10-19T16:49:34;99027.28;;;23.57;68.47
61337;BME280;47212;41.326;2.104;2023-10-19T16:54:40;98999.91;;;23.55;70.77
61337;BME280;47212;41.326;2.104;2023-10-19T16:59:48;98983.25;;;23.59;72.59
61337;BME280;47212;41.326;2.104;2023-10-19T17:05:00;98968.56;;;23.58;75.71
61337;BME280;47212;41.326;2.104;2023-10-19T17:10:09;98985.63;;;23.57;76.96
61337;BME280;47212;41.326;2.104;2023-10-19T17:15:19;98986.81;;;23.56;76.99
61337;BME280;47212;41.326;2.104;2023-10-19T17:20:25;98983.25;;;23.55;79.08
61337;BME280;47212;41.326;2.104;2023-10-19T17:25:38;98960.22;;;23.55;79.41
61337;BME280;47212;41.326;2.104;2023-10-19T17:30:50;98965.38;;;23.56;81.63
61337;BME280;47212;41.326;2.104;2023-10-19T17:36:16;98952.69;;;23.55;82.09
61337;BME280;47212;41.326;2.104;2023-10-19T17:41:27;98955.47;;;23.55;82.27
61337;BME280;47212;41.326;2.104;2023-10-19T17:46:36;98953.06;;;23.54;82.67
61337;BME280;47212;41.326;2.104;2023-10-19T17:51:46;98957.00;;;23.49;85.00
61337;BME280;47212;41.326;2.104;2023-10-19T17:56:50;98934.78;;;23.42;86.32
61337;BME280;47212;41.326;2.104;2023-10-19T18:01:57;98926.78;;;23.37;86.05
61337;BME280;47212;41.326;2.104;2023-10-19T18:07:19;98908.53;;;23.32;86.23
61337;BME280;47212;41.326;2.104;2023-10-19T18:12:22;98905.34;;;23.27;87.12
61337;BME280;47212;41.326;2.104;2023-10-19T18:17:32;98908.47;;;23.14;88.26
61337;BME280;47212;41.326;2.104;2023-10-19T18:22:52;98894.16;;;23.05;89.14
61337;BME280;47212;41.326;2.104;2023-10-19T18:28:00;98876.28;;;22.96;89.84
61337;BME280;47212;41.326;2.104;2023-10-19T18:33:10;98890.94;;;22.89;90.27
61337;BME280;47212;41.326;2.104;2023-10-19T18:38:23;98875.84;;;22.83;90.95
61337;BME280;47212;41.326;2.104;2023-10-19T18:43:29;98888.50;;;22.80;93.05
61337;BME280;47212;41.326;2.104;2023-10-19T18:48:32;98881.75;;;22.78;95.00
61337;BME280;47212;41.326;2.104;2023-10-19T18:53:38;98826.66;;;22.76;95.13
61337;BME280;47212;41.326;2.104;2023-10-19T18:58:44;98832.19;;;22.76;96.78
61337;BME280;47212;41.326;2.104;2023-10-19T19:03:55;98773.16;;;22.76;99.95
61337;BME280;47212;41.326;2.104;2023-10-19T19:09:03;98767.59;;;22.72;96.93
61337;BME280;47212;41.326;2.104;2023-10-19T19:14:13;98787.78;;;22.69;96.54
61337;BME280;47212;41.326;2.104;2023-10-19T19:19:28;98767.97;;;22.67;97.28
61337;BME280;47212;41.326;2.104;2023-10-19T19:24:36;98758.47;;;22.68;98.88
61337;BME280;47212;41.326;2.104;2023-10-19T19:29:42;98754.91;;;22.71;98.45
61337;BME280;47212;41.326;2.104;2023-10-19T19:34:50;98735.13;;;22.76;97.33
61337;BME280;47212;41.326;2.104;2023-10-19T19:40:15;98736.75;;;22.84;98.02
61337;BME280;47212;41.326;2.104;2023-10-19T19:50:57;98695.56;;;22.97;95.13
61337;BME280;47212;41.326;2.104;2023-10-19T19:56:40;98672.56;;;23.04;95.38
61337;BME280;47212;41.326;2.104;2023-10-19T20:01:42;98652.34;;;23.07;95.16
61337;BME280;47212;41.326;2.104;2023-10-19T20:06:45;98662.28;;;23.11;95.47
61337;BME280;47212;41.326;2.104;2023-10-19T20:11:48;98652.34;;;23.10;92.76
61337;BME280;47212;41.326;2.104;2023-10-19T20:16:55;98661.88;;;23.13;92.45
61337;BME280;47212;41.326;2.104;2023-10-19T20:21:58;98655.13;;;23.14;90.98
61337;BME280;47212;41.326;2.104;2023-10-19T20:27:03;98658.31;;;23.16;89.36
61337;BME280;47212;41.326;2.104;2023-10-19T20:32:08;98659.88;;;23.17;86.72
61337;BME280;47212;41.326;2.104;2023-10-19T20:37:14;98656.31;;;23.20;88.08
61337;BME280;47212;41.326;2.104;2023-10-19T20:42:16;98678.53;;;23.20;90.62
61337;BME280;47212;41.326;2.104;2023-10-19T20:47:20;98676.16;;;23.18;92.03
61337;BME280;47212;41.326;2.104;2023-10-19T20:52:25;98662.66;;;23.17;93.64
61337;BME280;47212;41.326;2.104;2023-10-19T20:57:29;98645.22;;;23.09;95.41
61337;BME280;47212;41.326;2.104;2023-10-19T21:02:33;98631.75;;;22.97;97.02
61337;BME280;47212;41.326;2.104;2023-10-19T21:07:35;98588.94;;;22.87;98.11
61337;BME280;47212;41.326;2.104;2023-10-19T21:12:38;98560.38;;;22.76;98.56
61337;BME280;47212;41.326;2.104;2023-10-19T21:17:45;98594.47;;;22.73;99.47
61337;BME280;47212;41.326;2.104;2023-10-19T21:22:49;98586.13;;;22.59;98.17
61337;BME280;47212;41.326;2.104;2023-10-19T21:27:52;98594.78;;;22.40;95.84
61337;BME280;47212;41.326;2.104;2023-10-19T21:32:54;98599.13;;;22.30;95.50
61337;BME280;47212;41.326;2.104;2023-10-19T21:37:57;98579.34;;;22.28;94.83
61337;BME280;47212;41.326;2.104;2023-10-19T21:42:59;98612.59;;;22.28;92.40
61337;BME280;47212;41.326;2.104;2023-10-19T21:48:01;98618.50;;;22.19;88.78
61337;BME280;47212;41.326;2.104;2023-10-19T21:53:05;98619.28;;;22.16;87.34
61337;BME280;47212;41.326;2.104;2023-10-19T21:58:07;98606.59;;;22.08;85.28
61337;BME280;47212;41.326;2.104;2023-10-19T22:03:10;98619.22;;;22.02;83.39
61337;BME280;47212;41.326;2.104;2023-10-19T22:08:14;98621.53;;;21.93;81.29
61337;BME280;47212;41.326;2.104;2023-10-19T22:13:17;98608.44;;;21.79;78.79
61337;BME280;47212;41.326;2.104;2023-10-19T22:18:19;98619.81;;;21.67;77.44
61337;BME280;47212;41.326;2.104;2023-10-19T22:23:22;98602.75;;;21.58;76.31
61337;BME280;47212;41.326;2.104;2023-10-19T22:28:24;98601.94;;;21.50;75.84
61337;BME280;47212;41.326;2.104;2023-10-19T22:33:26;98587.66;;;21.45;75.46
61337;BME280;47212;41.326;2.104;2023-10-19T22:38:28;98565.13;;;21.43;74.87
61337;BME280;47212;41.326;2.104;2023-10-19T22:43:31;98568.28;;;21.41;74.50
61337;BME280;47212;41.326;2.104;2023-10-19T22:48:33;98570.22;;;21.37;73.69
61337;BME280;47212;41.326;2.104;2023-10-19T22:53:36;98594.72;;;21.32;73.57
61337;BME280;47212;41.326;2.104;2023-10-19T22:58:40;98627.81;;;21.21;74.84
61337;BME280;47212;41.326;2.104;2023-10-19T23:03:42;98629.66;;;21.03;74.99
61337;BME280;47212;41.326;2.104;2023-10-19T23:08:46;98617.28;;;20.89;75.64
61337;BME280;47212;41.326;2.104;2023-10-19T23:13:49;98636.91;;;20.77;76.06
61337;BME280;47212;41.326;2.104;2023-10-19T23:18:52;98609.97;;;20.67;76.24
61337;BME280;47212;41.326;2.104;2023-10-19T23:23:57;98598.84;;;20.60;76.73
61337;BME280;47212;41.326;2.104;2023-10-19T23:28:59;98675.38;;;20.52;76.01
61337;BME280;47212;41.326;2.104;2023-10-19T23:34:07;98700.59;;;20.47;76.59
61337;BME280;47212;41.326;2.104;2023-10-19T23:39:09;98731.69;;;20.41;76.85
61337;BME280;47212;41.326;2.104;2023-10-19T23:44:15;98647.03;;;20.25;77.54
61337;BME280;47212;41.326;2.104;2023-10-19T23:49:17;98672.59;;;20.19;78.48
61337;BME280;47212;41.326;2.104;2023-10-19T23:54:19;98657.53;;;20.13;78.88
61337;BME280;47212;41.326;2.104;2023-10-19T23:59:22;98623.50;;;20.05;79.32
